Maple Ridge, Canada
Current Conditions -  °F | °C
As of 2:00 AM on Friday 31 Oct 2014 (Local Time) from CYXX Reporting Station
Overcast Overcast  
Wind Chill: 50°   Ceiling: 3000
Heat Index: 50°   Visibility: 10mi
Dew Point: 50°   Wind: 6mph
Humidity: 100%   Direction: 30°NNE
Pressure: 29.76"   Gusts: NA
Location:  49.22°N, 122.6°W
Report Text: CYXX 310900Z 03005KT 10SM OVC030 10/10 A2976 RMK SC8 SLP079
Loading
Personal Weather Stations






























Interactive Weather Map New forecast layout! Learn more

10-Day Weather Forecast

Advertisements
Track Severe Weather on mobile